createdAt,value
2018-06-22T00:00:03.448Z,98.30
2018-06-22T00:02:32.280Z,98.30
2018-06-22T00:05:01.109Z,97.90
2018-06-22T00:07:29.951Z,98.30
2018-06-22T00:09:58.788Z,98.40
2018-06-22T00:12:27.628Z,98.20
2018-06-22T00:14:56.855Z,98.30
2018-06-22T00:17:25.672Z,98.60
2018-06-22T00:19:54.529Z,98.10
2018-06-22T00:22:23.368Z,98.70
2018-06-22T00:24:52.221Z,98.60
2018-06-22T00:27:21.061Z,98.70
2018-06-22T00:29:49.904Z,98.30
2018-06-22T00:32:18.761Z,98.30
2018-06-22T00:34:47.597Z,98.30
2018-06-22T00:37:16.436Z,98.70
2018-06-22T00:39:45.277Z,98.40
2018-06-22T00:42:14.097Z,99.20
2018-06-22T00:44:42.937Z,98.30
2018-06-22T00:47:11.776Z,98.20
2018-06-22T00:49:40.673Z,98.10
2018-06-22T00:52:09.547Z,98.80
2018-06-22T00:54:39.169Z,98.30
2018-06-22T00:57:08.032Z,98.40
2018-06-22T00:59:36.891Z,98.70
2018-06-22T01:02:05.742Z,98.50
2018-06-22T01:04:34.587Z,98.90
2018-06-22T01:07:03.443Z,98.70
2018-06-22T01:09:32.289Z,98.70
2018-06-22T01:12:01.149Z,98.60
2018-06-22T01:14:30.038Z,98.40
2018-06-22T01:16:58.877Z,98.40
2018-06-22T01:19:27.702Z,98.50
2018-06-22T01:21:56.576Z,98.70
2018-06-22T01:24:25.401Z,98.90
2018-06-22T01:26:54.236Z,98.80
2018-06-22T01:29:28.628Z,98.00
2018-06-22T01:31:57.546Z,97.80
2018-06-22T01:34:26.483Z,98.00
2018-06-22T01:36:55.332Z,98.60
2018-06-22T01:39:24.378Z,98.30
2018-06-22T01:41:53.281Z,98.20
2018-06-22T01:44:22.133Z,98.20
2018-06-22T01:46:50.963Z,98.00
2018-06-22T01:49:19.802Z,98.10
2018-06-22T01:51:48.656Z,98.10
2018-06-22T01:54:18.640Z,99.10
2018-06-22T01:56:47.499Z,98.80
2018-06-22T01:59:16.335Z,99.00
2018-06-22T02:01:45.190Z,99.70
2018-06-22T02:04:15.132Z,99.20
2018-06-22T02:06:43.981Z,98.90
2018-06-22T02:09:13.464Z,99.00
2018-06-22T02:11:42.347Z,99.20
2018-06-22T02:14:11.216Z,99.50
2018-06-22T02:16:40.073Z,98.60
2018-06-22T02:19:08.956Z,99.40
2018-06-22T02:21:37.806Z,98.40
2018-06-22T02:24:06.642Z,98.80
2018-06-22T02:26:35.495Z,98.40
2018-06-22T02:29:04.315Z,98.40
2018-06-22T02:31:33.164Z,98.10
2018-06-22T02:34:02.001Z,98.10
2018-06-22T02:36:30.828Z,98.50
2018-06-22T02:38:59.655Z,97.50
2018-06-22T02:41:28.493Z,98.20
2018-06-22T02:43:57.321Z,97.30
2018-06-22T02:46:27.193Z,96.50
2018-06-22T02:48:56.102Z,99.90
2018-06-22T02:51:24.928Z,95.70
2018-06-22T02:53:53.772Z,94.80
2018-06-22T02:56:22.648Z,99.30
2018-06-22T02:58:51.488Z,96.50
2018-06-22T03:01:20.331Z,95.90
2018-06-22T03:03:49.352Z,97.60
2018-06-22T03:06:18.196Z,98.50
2018-06-22T03:08:47.053Z,98.00
2018-06-22T03:11:15.882Z,98.20
2018-06-22T03:13:44.733Z,98.20
2018-06-22T03:16:13.665Z,99.20
2018-06-22T03:18:42.885Z,99.90
2018-06-22T03:21:12.224Z,97.90
2018-06-22T03:23:41.843Z,97.50
2018-06-22T03:26:10.789Z,97.80
2018-06-22T03:28:39.699Z,98.10
2018-06-22T03:31:09.075Z,98.70
2018-06-22T03:33:37.921Z,97.80
2018-06-22T03:36:06.787Z,98.60
2018-06-22T03:38:35.630Z,97.90
2018-06-22T03:41:04.461Z,98.40
2018-06-22T03:43:33.306Z,98.30
2018-06-22T03:46:02.201Z,98.80
2018-06-22T03:48:31.049Z,98.20
2018-06-22T03:50:59.840Z,98.40
2018-06-22T03:53:28.677Z,98.20
2018-06-22T03:55:57.508Z,98.70
2018-06-22T03:58:26.393Z,98.80
2018-06-22T04:00:55.237Z,99.00
2018-06-22T04:03:24.080Z,99.10
2018-06-22T04:05:52.908Z,99.50
2018-06-22T04:08:21.751Z,98.90
2018-06-22T04:10:50.621Z,99.40
2018-06-22T04:13:19.494Z,99.30
2018-06-22T04:15:48.429Z,99.20
2018-06-22T04:18:17.335Z,99.10
2018-06-22T04:23:14.608Z,99.10
2018-06-22T04:25:43.475Z,99.20
2018-06-22T04:28:12.329Z,98.70
2018-06-22T04:30:41.244Z,99.10
2018-06-22T04:33:10.184Z,98.90
2018-06-22T04:35:39.131Z,99.10
2018-06-22T04:38:08.036Z,99.10
2018-06-22T04:40:36.904Z,99.40
2018-06-22T04:43:05.733Z,99.40
2018-06-22T04:45:35.454Z,99.20
2018-06-22T04:48:04.436Z,99.10
2018-06-22T04:53:01.820Z,99.10
2018-06-22T04:55:30.720Z,99.30
2018-06-22T04:57:59.545Z,99.30
2018-06-22T05:02:56.901Z,99.00
2018-06-22T05:05:26.583Z,98.90
2018-06-22T05:10:23.937Z,99.40
2018-06-22T05:12:52.823Z,98.70
2018-06-22T05:15:21.656Z,99.00
2018-06-22T05:17:50.866Z,99.30
2018-06-22T05:20:19.683Z,99.40
2018-06-22T05:22:48.509Z,99.50
2018-06-22T05:25:17.372Z,99.50
2018-06-22T05:27:46.229Z,99.00
2018-06-22T05:30:15.066Z,99.30
2018-06-22T05:32:43.929Z,99.40
2018-06-22T05:35:12.848Z,99.60
2018-06-22T05:37:41.797Z,99.70
2018-06-22T05:40:10.708Z,99.20
2018-06-22T05:42:39.605Z,99.90
2018-06-22T05:45:08.509Z,99.80
2018-06-22T05:47:37.451Z,99.20
2018-06-22T05:50:06.321Z,99.40
2018-06-22T05:52:35.296Z,99.70
2018-06-22T05:55:04.139Z,99.60
2018-06-22T05:57:32.981Z,99.30
2018-06-22T06:00:01.838Z,99.40
2018-06-22T06:02:30.688Z,99.20
2018-06-22T06:04:59.528Z,99.20
2018-06-22T06:07:29.371Z,99.20
2018-06-22T06:09:58.185Z,99.70
2018-06-22T06:12:27.225Z,99.30
2018-06-22T06:14:56.025Z,99.30
2018-06-22T06:17:24.993Z,98.70
2018-06-22T06:19:53.908Z,99.30
2018-06-22T06:22:22.745Z,99.30
2018-06-22T06:24:51.553Z,99.50
2018-06-22T06:27:20.453Z,99.50
2018-06-22T06:29:49.376Z,99.30
2018-06-22T06:32:18.216Z,99.40
2018-06-22T06:34:47.055Z,99.30
2018-06-22T06:37:15.913Z,98.90
2018-06-22T06:39:44.750Z,99.30
2018-06-22T06:42:13.842Z,99.50
2018-06-22T06:44:42.908Z,99.80
2018-06-22T06:47:11.854Z,99.70
2018-06-22T06:49:40.883Z,99.90
2018-06-22T06:52:09.670Z,99.30
2018-06-22T06:54:38.751Z,99.10
2018-06-22T06:57:07.641Z,99.50
2018-06-22T06:59:36.629Z,99.30
2018-06-22T07:02:05.600Z,99.40
2018-06-22T07:04:34.428Z,98.90
2018-06-22T07:07:03.313Z,99.20
2018-06-22T07:09:32.154Z,99.00
2018-06-22T07:12:01.017Z,98.90
2018-06-22T07:14:29.856Z,98.30
2018-06-22T07:16:58.884Z,98.90
2018-06-22T07:19:27.831Z,99.10
2018-06-22T07:21:56.646Z,99.30
2018-06-22T07:24:25.531Z,98.90
2018-06-22T07:26:54.405Z,99.80
2018-06-22T07:29:23.250Z,99.10
2018-06-22T07:31:52.088Z,99.80
2018-06-22T07:34:20.905Z,99.80
2018-06-22T07:36:49.756Z,99.50
2018-06-22T07:39:18.608Z,99.70
2018-06-22T07:41:47.449Z,98.80
2018-06-22T07:44:16.464Z,99.00
2018-06-22T07:46:45.329Z,99.20
2018-06-22T07:49:14.178Z,99.00
2018-06-22T07:51:43.034Z,99.60
2018-06-22T07:54:11.973Z,99.70
2018-06-22T07:56:40.811Z,99.50
2018-06-22T07:59:09.690Z,99.10
2018-06-22T08:01:38.596Z,99.60
2018-06-22T08:04:07.833Z,99.10
2018-06-22T08:06:36.760Z,99.90
2018-06-22T08:09:07.499Z,99.50
2018-06-22T08:11:36.721Z,99.30
2018-06-22T08:14:05.772Z,99.30
2018-06-22T08:16:34.589Z,99.50
2018-06-22T08:19:03.490Z,99.20
2018-06-22T08:21:32.323Z,99.90
2018-06-22T08:24:01.160Z,99.30
2018-06-22T08:26:29.993Z,99.10
2018-06-22T08:28:58.889Z,99.90
2018-06-22T08:31:27.716Z,99.90
2018-06-22T08:33:56.716Z,98.10
2018-06-22T08:36:25.540Z,97.90
2018-06-22T08:38:54.388Z,98.80
2018-06-22T08:41:23.372Z,98.40
2018-06-22T08:43:52.228Z,98.80
2018-06-22T08:46:21.084Z,99.90
2018-06-22T08:48:49.955Z,98.90
2018-06-22T08:51:18.825Z,98.30
2018-06-22T08:53:47.789Z,98.90
2018-06-22T08:56:16.600Z,98.40
2018-06-22T08:58:45.559Z,96.60
2018-06-22T09:01:15.049Z,98.10
2018-06-22T09:03:43.279Z,97.40
2018-06-22T09:06:12.124Z,97.80
2018-06-22T09:08:41.033Z,96.30
2018-06-22T09:11:09.892Z,96.70
2018-06-22T09:13:38.840Z,98.70
2018-06-22T09:16:07.798Z,99.80
2018-06-22T09:18:36.655Z,99.30
2018-06-22T09:21:05.508Z,97.40
2018-06-22T09:23:34.343Z,96.70
2018-06-22T09:26:03.216Z,98.20
2018-06-22T09:28:32.049Z,97.50
2018-06-22T09:31:01.004Z,97.20
2018-06-22T09:33:29.836Z,97.60
2018-06-22T09:35:58.682Z,96.80
2018-06-22T09:38:27.569Z,96.10
2018-06-22T09:40:56.461Z,95.90
2018-06-22T09:43:25.328Z,97.70
2018-06-22T09:45:54.193Z,94.70
2018-06-22T09:50:51.617Z,94.10
2018-06-22T09:53:20.452Z,94.70
2018-06-22T09:55:49.354Z,92.90
2018-06-22T09:58:18.217Z,94.80
2018-06-22T10:00:53.057Z,94.00
2018-06-22T10:03:23.093Z,93.80
2018-06-22T10:05:51.969Z,96.70
2018-06-22T10:08:20.834Z,91.60
2018-06-22T10:10:49.597Z,93.50
2018-06-22T10:13:18.432Z,91.90
2018-06-22T10:15:52.935Z,90.70
2018-06-22T10:18:22.552Z,94.60
2018-06-22T10:20:51.401Z,92.40
2018-06-22T10:23:20.261Z,94.80
2018-06-22T10:25:49.113Z,93.90
2018-06-22T10:28:18.848Z,92.70
2018-06-22T10:30:47.697Z,90.40
2018-06-22T10:33:16.516Z,84.20
2018-06-22T10:35:45.377Z,92.10
2018-06-22T10:38:14.249Z,93.50
2018-06-22T10:40:43.108Z,91.70
2018-06-22T10:43:12.012Z,87.90
2018-06-22T10:45:40.902Z,95.30
2018-06-22T10:48:09.886Z,85.50
2018-06-22T10:50:38.741Z,91.50
2018-06-22T10:53:07.611Z,92.60
2018-06-22T10:55:36.461Z,82.50
2018-06-22T10:58:05.905Z,93.00
2018-06-22T11:00:34.797Z,88.80
2018-06-22T11:03:03.632Z,88.00
2018-06-22T11:05:32.472Z,92.60
2018-06-22T11:08:01.363Z,91.70
2018-06-22T11:10:30.177Z,88.40
2018-06-22T11:12:59.017Z,93.10
2018-06-22T11:15:27.844Z,88.90
2018-06-22T11:17:56.677Z,89.70
2018-06-22T11:20:25.520Z,85.80
2018-06-22T11:22:54.359Z,83.00
2018-06-22T11:25:23.222Z,91.00
2018-06-22T11:27:52.085Z,85.00
2018-06-22T11:30:21.000Z,91.10
2018-06-22T11:32:49.869Z,89.60
2018-06-22T11:35:18.820Z,92.30
2018-06-22T11:37:47.684Z,93.80
2018-06-22T11:40:17.526Z,83.30
2018-06-22T11:42:46.586Z,91.30
2018-06-22T11:45:15.669Z,79.50
2018-06-22T11:47:46.127Z,94.10
2018-06-22T11:50:15.053Z,94.10
2018-06-22T11:52:43.940Z,82.90
2018-06-22T11:55:12.833Z,82.30
2018-06-22T11:57:41.870Z,83.30
2018-06-22T12:00:10.864Z,84.20
2018-06-22T12:02:39.911Z,80.00
2018-06-22T12:05:10.828Z,85.10
2018-06-22T12:07:39.720Z,90.60
2018-06-22T12:10:08.632Z,81.60
2018-06-22T12:12:37.706Z,79.90
2018-06-22T12:15:07.598Z,91.90
2018-06-22T12:17:36.470Z,81.00
2018-06-22T12:20:05.646Z,83.10
2018-06-22T12:22:34.472Z,93.20
2018-06-22T12:25:03.366Z,87.30
2018-06-22T12:27:32.246Z,84.40
2018-06-22T12:30:01.140Z,81.60
2018-06-22T12:32:29.993Z,81.30
2018-06-22T12:34:58.860Z,90.40
2018-06-22T12:37:31.711Z,84.90
2018-06-22T12:40:00.509Z,85.00
2018-06-22T12:42:29.377Z,83.50
2018-06-22T12:44:58.368Z,80.50
2018-06-22T12:47:27.257Z,81.30
2018-06-22T12:49:56.113Z,79.90
2018-06-22T12:52:24.952Z,91.90
2018-06-22T12:54:53.792Z,80.40
2018-06-22T12:57:22.726Z,81.40
2018-06-22T12:59:51.660Z,81.80
2018-06-22T13:02:20.635Z,81.00
2018-06-22T13:04:49.541Z,80.70
2018-06-22T13:07:18.360Z,88.00
2018-06-22T13:09:47.620Z,87.30
2018-06-22T13:12:16.564Z,82.20
2018-06-22T13:14:45.526Z,83.70
2018-06-22T13:17:14.668Z,90.80
2018-06-22T13:19:43.726Z,91.50
2018-06-22T13:22:13.935Z,85.60
2018-06-22T13:24:43.503Z,90.30
2018-06-22T13:27:12.622Z,92.00
2018-06-22T13:29:41.972Z,92.20
2018-06-22T13:32:11.697Z,84.80
2018-06-22T13:34:40.737Z,90.30
2018-06-22T13:37:09.667Z,93.70
2018-06-22T13:39:39.193Z,79.20
2018-06-22T13:42:08.187Z,76.80
2018-06-22T13:44:37.633Z,80.10
2018-06-22T13:47:06.512Z,74.80
2018-06-22T13:49:35.388Z,77.40
2018-06-22T13:52:04.286Z,92.70
2018-06-22T13:54:33.148Z,87.60
2018-06-22T13:57:02.081Z,82.10
2018-06-22T13:59:32.608Z,84.40
2018-06-22T14:02:02.401Z,88.60
2018-06-22T14:04:36.867Z,91.70
2018-06-22T14:07:07.121Z,85.80
2018-06-22T14:09:36.523Z,88.30
2018-06-22T14:12:05.703Z,82.40
2018-06-22T14:14:34.580Z,82.40
2018-06-22T14:17:03.529Z,84.40
2018-06-22T14:19:32.404Z,87.00
2018-06-22T14:22:07.755Z,88.60
2018-06-22T14:24:36.616Z,92.90
2018-06-22T14:27:05.699Z,82.60
2018-06-22T14:29:34.565Z,82.60
2018-06-22T14:32:03.468Z,89.90
2018-06-22T14:34:32.335Z,83.20
2018-06-22T14:37:01.210Z,82.20
2018-06-22T14:39:30.177Z,81.40
2018-06-22T14:41:59.037Z,89.10
2018-06-22T14:44:27.890Z,89.20
2018-06-22T14:46:56.728Z,90.20
2018-06-22T14:49:25.717Z,92.50
2018-06-22T14:52:01.073Z,76.80
2018-06-22T14:54:35.280Z,92.50
2018-06-22T14:57:09.571Z,79.60
2018-06-22T14:59:43.979Z,92.00
2018-06-22T15:02:18.367Z,90.40
2018-06-22T15:04:52.863Z,81.70
2018-06-22T15:07:27.201Z,75.90
2018-06-22T15:09:56.054Z,76.40
2018-06-22T15:12:24.879Z,75.50
2018-06-22T15:14:53.743Z,77.00
2018-06-22T15:17:22.646Z,79.50
2018-06-22T15:19:51.480Z,79.20
2018-06-22T15:22:20.316Z,82.40
2018-06-22T15:24:49.165Z,87.90
2018-06-22T15:27:18.029Z,91.80
2018-06-22T15:29:46.887Z,82.50
2018-06-22T15:32:16.013Z,90.40
2018-06-22T15:34:50.515Z,86.90
2018-06-22T15:37:24.911Z,86.40
2018-06-22T15:39:59.374Z,93.40
2018-06-22T15:42:33.847Z,84.60
2018-06-22T15:45:08.825Z,91.20
2018-06-22T15:47:43.332Z,83.90
2018-06-22T15:50:17.821Z,83.20
2018-06-22T15:52:52.368Z,89.80
2018-06-22T15:55:23.121Z,86.50
2018-06-22T15:57:52.329Z,87.50
2018-06-22T16:00:21.787Z,93.00
2018-06-22T16:02:55.975Z,80.70
2018-06-22T16:05:24.810Z,81.40
2018-06-22T16:07:54.897Z,83.50
2018-06-22T16:10:23.880Z,81.20
2018-06-22T16:12:52.822Z,86.20
2018-06-22T16:15:27.228Z,92.10
2018-06-22T16:18:01.812Z,83.40
2018-06-22T16:20:36.415Z,92.50
2018-06-22T16:23:10.951Z,91.80
2018-06-22T16:25:45.405Z,90.50
2018-06-22T16:28:14.343Z,84.10
2018-06-22T16:30:43.285Z,91.90
2018-06-22T16:33:12.141Z,90.30
2018-06-22T16:35:41.073Z,90.90
2018-06-22T16:38:10.129Z,87.30
2018-06-22T16:40:39.085Z,94.00
2018-06-22T16:43:08.340Z,90.40
2018-06-22T16:45:37.327Z,92.40
2018-06-22T16:48:06.334Z,93.80
2018-06-22T16:50:35.260Z,89.40
2018-06-22T16:53:04.289Z,93.80
2018-06-22T16:58:01.878Z,93.10
2018-06-22T17:02:59.551Z,90.40
2018-06-22T17:05:28.671Z,91.60
2018-06-22T17:08:02.879Z,94.60
2018-06-22T17:10:37.178Z,93.20
2018-06-22T17:13:11.722Z,94.10
2018-06-22T17:15:45.923Z,92.80
2018-06-22T17:18:20.265Z,92.10
2018-06-22T17:20:49.179Z,94.40
2018-06-22T17:23:18.053Z,90.50
2018-06-22T17:25:47.073Z,92.90
2018-06-22T17:28:15.916Z,96.10
2018-06-22T17:30:44.838Z,92.10
2018-06-22T17:33:13.724Z,93.20
2018-06-22T17:35:42.569Z,92.70
2018-06-22T17:38:11.404Z,94.90
2018-06-22T17:40:40.282Z,91.00
2018-06-22T17:43:09.220Z,92.70
2018-06-22T17:45:38.122Z,95.30
2018-06-22T17:48:07.094Z,95.00
2018-06-22T17:50:35.982Z,91.30
2018-06-22T17:53:04.844Z,92.70
2018-06-22T17:55:33.750Z,91.80
2018-06-22T17:58:02.712Z,94.90
2018-06-22T18:00:37.049Z,91.50
2018-06-22T18:03:11.233Z,96.00
2018-06-22T18:05:45.553Z,92.10
2018-06-22T18:08:19.995Z,93.90
2018-06-22T18:10:54.217Z,94.50
2018-06-22T18:13:23.090Z,93.80
2018-06-22T18:15:51.917Z,93.30
2018-06-22T18:18:20.789Z,95.30
2018-06-22T18:20:49.668Z,96.30
2018-06-22T18:23:18.560Z,93.90
2018-06-22T18:25:47.401Z,94.30
2018-06-22T18:28:17.187Z,94.60
2018-06-22T18:30:46.011Z,96.60
2018-06-22T18:33:15.056Z,97.50
2018-06-22T18:35:43.841Z,95.60
2018-06-22T18:38:13.163Z,95.20
2018-06-22T18:40:42.016Z,95.90
2018-06-22T18:43:15.113Z,96.00
2018-06-22T18:45:44.082Z,94.60
2018-06-22T18:48:13.168Z,94.40
2018-06-22T18:50:42.017Z,95.70
2018-06-22T18:53:16.564Z,96.00
2018-06-22T18:55:50.788Z,94.10
2018-06-22T18:58:25.045Z,94.70
2018-06-22T19:00:59.321Z,92.70
2018-06-22T19:03:33.528Z,93.00
2018-06-22T19:06:02.463Z,93.20
2018-06-22T19:08:31.376Z,93.90
2018-06-22T19:11:01.271Z,95.10
2018-06-22T19:13:30.195Z,94.00
2018-06-22T19:15:59.066Z,94.60
2018-06-22T19:18:27.901Z,97.00
2018-06-22T19:20:57.634Z,94.40
2018-06-22T19:23:27.376Z,96.30
2018-06-22T19:25:56.223Z,94.30
2018-06-22T19:28:25.068Z,96.10
2018-06-22T19:30:53.920Z,93.80
2018-06-22T19:33:23.067Z,95.70
2018-06-22T19:35:51.917Z,96.30
2018-06-22T19:38:20.769Z,93.90
2018-06-22T19:40:49.616Z,95.00
2018-06-22T19:43:23.867Z,93.70
2018-06-22T19:45:58.130Z,95.90
2018-06-22T19:48:32.521Z,95.30
2018-06-22T19:51:06.921Z,95.60
2018-06-22T19:53:42.220Z,95.80
2018-06-22T19:56:11.090Z,94.20
2018-06-22T19:58:39.909Z,95.50
2018-06-22T20:01:08.881Z,96.60
2018-06-22T20:03:37.742Z,94.50
2018-06-22T20:06:06.881Z,94.50
2018-06-22T20:08:35.887Z,95.70
2018-06-22T20:11:04.946Z,96.30
2018-06-22T20:13:34.004Z,95.50
2018-06-22T20:16:02.970Z,95.10
2018-06-22T20:18:32.010Z,95.60
2018-06-22T20:21:00.899Z,93.50
2018-06-22T20:23:29.863Z,94.20
2018-06-22T20:25:58.728Z,94.70
2018-06-22T20:28:27.616Z,95.80
2018-06-22T20:30:56.478Z,94.80
2018-06-22T20:33:25.337Z,97.10
2018-06-22T20:35:59.694Z,95.40
2018-06-22T20:38:33.987Z,98.70
2018-06-22T20:41:08.185Z,95.70
2018-06-22T20:43:42.348Z,95.80
2018-06-22T20:46:11.200Z,96.30
2018-06-22T20:48:47.999Z,97.80
2018-06-22T20:53:45.394Z,97.40
2018-06-22T20:56:14.298Z,94.30
2018-06-22T20:58:43.142Z,95.10
2018-06-22T21:01:12.002Z,96.50
2018-06-22T21:03:40.857Z,94.80
2018-06-22T21:06:09.693Z,95.20
2018-06-22T21:08:38.578Z,94.30
2018-06-22T21:11:07.424Z,95.20
2018-06-22T21:13:36.287Z,94.90
2018-06-22T21:16:05.219Z,95.40
2018-06-22T21:18:34.092Z,95.10
2018-06-22T21:21:08.565Z,93.50
2018-06-22T21:23:37.447Z,94.50
2018-06-22T21:26:06.349Z,95.50
2018-06-22T21:28:40.761Z,93.80
2018-06-22T21:31:15.141Z,95.50
2018-06-22T21:33:49.425Z,96.10
2018-06-22T21:36:23.862Z,96.50
2018-06-22T21:38:57.543Z,94.50
2018-06-22T21:41:26.377Z,96.40
2018-06-22T21:43:55.419Z,93.20
2018-06-22T21:48:52.911Z,98.00
2018-06-22T21:51:21.764Z,97.50
2018-06-22T21:53:50.610Z,97.10
2018-06-22T21:56:19.460Z,95.30
2018-06-22T21:58:48.308Z,93.70
2018-06-22T22:01:17.124Z,95.10
2018-06-22T22:03:45.999Z,92.60
2018-06-22T22:06:14.885Z,96.20
2018-06-22T22:08:43.661Z,93.10
2018-06-22T22:11:12.513Z,92.10
2018-06-22T22:13:41.427Z,94.50
2018-06-22T22:16:10.356Z,92.90
2018-06-22T22:18:39.205Z,93.40
2018-06-22T22:21:08.064Z,92.60
2018-06-22T22:23:37.048Z,93.00
2018-06-22T22:26:05.900Z,93.10
2018-06-22T22:28:34.778Z,94.40
2018-06-22T22:31:03.646Z,91.40
2018-06-22T22:33:32.538Z,93.20
2018-06-22T22:36:01.425Z,92.40
2018-06-22T22:38:30.308Z,90.80
2018-06-22T22:40:59.169Z,91.00
2018-06-22T22:43:28.045Z,96.70
2018-06-22T22:45:56.890Z,96.80
2018-06-22T22:48:25.740Z,92.00
2018-06-22T22:50:54.586Z,92.00
2018-06-22T22:53:23.403Z,92.50
2018-06-22T22:55:52.243Z,90.20
2018-06-22T22:58:21.080Z,95.20
2018-06-22T23:00:49.963Z,92.70
2018-06-22T23:03:18.830Z,90.20
2018-06-22T23:05:47.697Z,94.00
2018-06-22T23:08:16.592Z,95.90
2018-06-22T23:10:45.440Z,91.00
2018-06-22T23:13:14.291Z,94.00
2018-06-22T23:15:43.132Z,90.40
2018-06-22T23:18:12.120Z,93.80
2018-06-22T23:23:20.984Z,93.50
2018-06-22T23:25:49.832Z,91.80
2018-06-22T23:28:18.756Z,94.40
2018-06-22T23:30:47.593Z,89.60
2018-06-22T23:35:45.004Z,91.30
2018-06-22T23:38:13.849Z,93.70
2018-06-22T23:40:42.698Z,89.70
2018-06-22T23:43:11.564Z,90.30
2018-06-22T23:45:40.406Z,90.70
2018-06-22T23:48:10.403Z,90.60
2018-06-22T23:50:39.246Z,94.20
2018-06-22T23:53:08.108Z,93.00
2018-06-22T23:55:37.001Z,93.10
2018-06-22T23:58:05.984Z,89.30
